sensor_id;sensor_type;location;lat;lon;timestamp;temperature;humidity
53802;DHT22;39709;53.334;6.534;2023-05-01T00:00:05;7.70;99.90
53802;DHT22;39709;53.334;6.534;2023-05-01T00:02:31;7.40;45.00
53802;DHT22;39709;53.334;6.534;2023-05-01T00:04:56;7.50;87.80
53802;DHT22;39709;53.334;6.534;2023-05-01T00:07:22;7.40;74.70
53802;DHT22;39709;53.334;6.534;2023-05-01T00:09:50;7.30;42.60
53802;DHT22;39709;53.334;6.534;2023-05-01T00:12:16;7.20;54.20
53802;DHT22;39709;53.334;6.534;2023-05-01T00:14:42;7.10;50.90
53802;DHT22;39709;53.334;6.534;2023-05-01T00:17:07;7.00;62.50
53802;DHT22;39709;53.334;6.534;2023-05-01T00:19:33;7.00;69.40
53802;DHT22;39709;53.334;6.534;2023-05-01T00:21:59;7.00;82.10
53802;DHT22;39709;53.334;6.534;2023-05-01T00:24:24;6.90;86.00
53802;DHT22;39709;53.334;6.534;2023-05-01T00:26:50;6.80;91.70
53802;DHT22;39709;53.334;6.534;2023-05-01T00:29:16;6.80;94.90
53802;DHT22;39709;53.334;6.534;2023-05-01T00:31:42;6.90;98.60
53802;DHT22;39709;53.334;6.534;2023-05-01T00:34:08;6.80;98.00
53802;DHT22;39709;53.334;6.534;2023-05-01T00:36:34;6.70;99.90
53802;DHT22;39709;53.334;6.534;2023-05-01T00:39:00;6.70;99.90
53802;DHT22;39709;53.334;6.534;2023-05-01T00:41:26;6.70;99.90
53802;DHT22;39709;53.334;6.534;2023-05-01T00:43:51;6.70;99.90
53802;DHT22;39709;53.334;6.534;2023-05-01T00:46:17;6.70;99.90
53802;DHT22;39709;53.334;6.534;2023-05-01T00:48:43;6.70;99.90
53802;DHT22;39709;53.334;6.534;2023-05-01T00:51:11;6.60;99.90
53802;DHT22;39709;53.334;6.534;2023-05-01T00:53:39;6.60;99.90
53802;DHT22;39709;53.334;6.534;2023-05-01T00:56:06;6.60;99.90
53802;DHT22;39709;53.334;6.534;2023-05-01T00:58:33;6.60;99.90
53802;DHT22;39709;53.334;6.534;2023-05-01T01:00:59;6.50;99.90
53802;DHT22;39709;53.334;6.534;2023-05-01T01:03:26;6.50;99.90
53802;DHT22;39709;53.334;6.534;2023-05-01T01:06:24;6.60;99.90
53802;DHT22;39709;53.334;6.534;2023-05-01T01:12:08;6.50;99.90
53802;DHT22;39709;53.334;6.534;2023-05-01T01:15:20;6.40;99.90
53802;DHT22;39709;53.334;6.534;2023-05-01T01:17:37;6.40;99.90
53802;DHT22;39709;53.334;6.534;2023-05-01T01:20:29;6.50;99.90
53802;DHT22;39709;53.334;6.534;2023-05-01T01:26:12;6.50;99.90
53802;DHT22;39709;53.334;6.534;2023-05-01T01:41:44;6.40;99.90
53802;DHT22;39709;53.334;6.534;2023-05-01T01:44:18;6.40;99.90
53802;DHT22;39709;53.334;6.534;2023-05-01T01:46:47;6.50;99.90
53802;DHT22;39709;53.334;6.534;2023-05-01T01:49:23;6.50;99.90
53802;DHT22;39709;53.334;6.534;2023-05-01T01:51:51;6.40;99.90
53802;DHT22;39709;53.334;6.534;2023-05-01T01:54:21;6.50;99.90
53802;DHT22;39709;53.334;6.534;2023-05-01T01:56:49;6.50;99.90
53802;DHT22;39709;53.334;6.534;2023-05-01T01:59:15;6.50;99.90
53802;DHT22;39709;53.334;6.534;2023-05-01T02:01:42;6.50;99.90
53802;DHT22;39709;53.334;6.534;2023-05-01T02:04:10;6.50;99.90
53802;DHT22;39709;53.334;6.534;2023-05-01T02:06:38;6.60;99.90
53802;DHT22;39709;53.334;6.534;2023-05-01T02:09:05;6.40;99.90
53802;DHT22;39709;53.334;6.534;2023-05-01T02:11:32;6.60;99.90
53802;DHT22;39709;53.334;6.534;2023-05-01T02:14:00;6.40;99.90
53802;DHT22;39709;53.334;6.534;2023-05-01T02:16:28;6.70;99.90
53802;DHT22;39709;53.334;6.534;2023-05-01T02:18:54;6.60;99.90
53802;DHT22;39709;53.334;6.534;2023-05-01T02:21:21;6.80;99.90
53802;DHT22;39709;53.334;6.534;2023-05-01T02:23:48;6.80;99.90
53802;DHT22;39709;53.334;6.534;2023-05-01T02:26:15;6.70;99.90
53802;DHT22;39709;53.334;6.534;2023-05-01T02:28:41;6.70;99.90
53802;DHT22;39709;53.334;6.534;2023-05-01T02:31:08;6.50;99.90
53802;DHT22;39709;53.334;6.534;2023-05-01T02:33:34;6.70;99.90
53802;DHT22;39709;53.334;6.534;2023-05-01T02:35:59;6.80;99.90
53802;DHT22;39709;53.334;6.534;2023-05-01T02:38:25;6.80;99.90
53802;DHT22;39709;53.334;6.534;2023-05-01T02:40:53;6.60;99.90
53802;DHT22;39709;53.334;6.534;2023-05-01T02:43:21;6.50;99.90
53802;DHT22;39709;53.334;6.534;2023-05-01T02:45:49;6.60;99.90
53802;DHT22;39709;53.334;6.534;2023-05-01T02:48:19;6.60;99.90
53802;DHT22;39709;53.334;6.534;2023-05-01T02:50:47;6.40;99.90
53802;DHT22;39709;53.334;6.534;2023-05-01T02:53:14;6.50;99.90
53802;DHT22;39709;53.334;6.534;2023-05-01T02:55:40;6.40;99.90
53802;DHT22;39709;53.334;6.534;2023-05-01T02:58:07;6.20;99.90
53802;DHT22;39709;53.334;6.534;2023-05-01T03:00:33;6.30;99.90
53802;DHT22;39709;53.334;6.534;2023-05-01T03:02:59;6.50;99.90
53802;DHT22;39709;53.334;6.534;2023-05-01T03:05:25;6.50;99.90
53802;DHT22;39709;53.334;6.534;2023-05-01T03:07:51;6.40;99.90
53802;DHT22;39709;53.334;6.534;2023-05-01T03:10:17;6.50;99.90
53802;DHT22;39709;53.334;6.534;2023-05-01T03:12:43;6.50;99.90
53802;DHT22;39709;53.334;6.534;2023-05-01T03:15:09;6.80;99.90
53802;DHT22;39709;53.334;6.534;2023-05-01T03:17:36;6.70;99.90
53802;DHT22;39709;53.334;6.534;2023-05-01T03:20:02;6.80;99.90
53802;DHT22;39709;53.334;6.534;2023-05-01T03:22:31;6.90;99.90
53802;DHT22;39709;53.334;6.534;2023-05-01T03:24:58;6.80;99.90
53802;DHT22;39709;53.334;6.534;2023-05-01T03:27:23;6.60;99.90
53802;DHT22;39709;53.334;6.534;2023-05-01T03:29:49;6.60;99.90
53802;DHT22;39709;53.334;6.534;2023-05-01T03:32:15;6.40;99.90
53802;DHT22;39709;53.334;6.534;2023-05-01T03:34:42;6.50;99.90
53802;DHT22;39709;53.334;6.534;2023-05-01T03:37:08;6.30;99.90
53802;DHT22;39709;53.334;6.534;2023-05-01T03:39:34;6.00;99.90
53802;DHT22;39709;53.334;6.534;2023-05-01T03:42:00;6.00;99.90
53802;DHT22;39709;53.334;6.534;2023-05-01T03:44:26;6.10;99.90
53802;DHT22;39709;53.334;6.534;2023-05-01T03:46:52;6.00;99.90
53802;DHT22;39709;53.334;6.534;2023-05-01T03:49:18;5.90;99.90
53802;DHT22;39709;53.334;6.534;2023-05-01T03:51:44;5.90;99.90
53802;DHT22;39709;53.334;6.534;2023-05-01T03:54:09;5.80;99.90
53802;DHT22;39709;53.334;6.534;2023-05-01T03:56:35;5.90;99.90
53802;DHT22;39709;53.334;6.534;2023-05-01T03:59:01;5.70;99.90
53802;DHT22;39709;53.334;6.534;2023-05-01T04:01:27;5.50;99.90
53802;DHT22;39709;53.334;6.534;2023-05-01T04:03:52;5.50;99.90
53802;DHT22;39709;53.334;6.534;2023-05-01T04:06:18;5.60;99.90
53802;DHT22;39709;53.334;6.534;2023-05-01T04:08:44;5.70;99.90
53802;DHT22;39709;53.334;6.534;2023-05-01T04:11:10;5.50;99.90
53802;DHT22;39709;53.334;6.534;2023-05-01T04:13:35;5.50;99.90
53802;DHT22;39709;53.334;6.534;2023-05-01T04:16:01;5.50;99.90
53802;DHT22;39709;53.334;6.534;2023-05-01T04:18:27;5.40;99.90
53802;DHT22;39709;53.334;6.534;2023-05-01T04:20:53;5.50;99.90
53802;DHT22;39709;53.334;6.534;2023-05-01T04:23:19;5.50;99.90
53802;DHT22;39709;53.334;6.534;2023-05-01T04:25:45;5.60;99.90
53802;DHT22;39709;53.334;6.534;2023-05-01T04:28:12;5.50;99.90
53802;DHT22;39709;53.334;6.534;2023-05-01T04:30:37;5.70;99.90
53802;DHT22;39709;53.334;6.534;2023-05-01T04:33:04;5.80;99.90
53802;DHT22;39709;53.334;6.534;2023-05-01T04:35:39;5.90;99.90
53802;DHT22;39709;53.334;6.534;2023-05-01T04:38:06;6.40;99.90
53802;DHT22;39709;53.334;6.534;2023-05-01T04:40:32;6.50;99.90
53802;DHT22;39709;53.334;6.534;2023-05-01T04:42:57;6.70;99.90
53802;DHT22;39709;53.334;6.534;2023-05-01T04:45:23;6.30;99.90
53802;DHT22;39709;53.334;6.534;2023-05-01T04:47:49;6.40;99.90
53802;DHT22;39709;53.334;6.534;2023-05-01T04:50:14;6.40;99.90
53802;DHT22;39709;53.334;6.534;2023-05-01T04:52:40;6.20;99.90
53802;DHT22;39709;53.334;6.534;2023-05-01T04:55:07;5.90;99.90
53802;DHT22;39709;53.334;6.534;2023-05-01T04:57:33;6.00;99.90
53802;DHT22;39709;53.334;6.534;2023-05-01T04:59:59;6.20;99.90
53802;DHT22;39709;53.334;6.534;2023-05-01T05:02:26;6.10;99.90
53802;DHT22;39709;53.334;6.534;2023-05-01T05:04:51;6.20;99.90
53802;DHT22;39709;53.334;6.534;2023-05-01T05:07:21;6.40;99.90
53802;DHT22;39709;53.334;6.534;2023-05-01T05:09:47;6.20;99.90
53802;DHT22;39709;53.334;6.534;2023-05-01T05:12:13;6.40;99.90
53802;DHT22;39709;53.334;6.534;2023-05-01T05:14:40;6.80;99.90
53802;DHT22;39709;53.334;6.534;2023-05-01T05:17:06;6.70;99.90
53802;DHT22;39709;53.334;6.534;2023-05-01T05:19:31;7.00;99.90
53802;DHT22;39709;53.334;6.534;2023-05-01T05:21:57;6.70;99.90
53802;DHT22;39709;53.334;6.534;2023-05-01T05:24:23;6.80;99.90
53802;DHT22;39709;53.334;6.534;2023-05-01T05:26:50;6.80;99.90
53802;DHT22;39709;53.334;6.534;2023-05-01T05:29:16;6.80;99.90
53802;DHT22;39709;53.334;6.534;2023-05-01T05:31:41;6.90;99.90
53802;DHT22;39709;53.334;6.534;2023-05-01T05:34:07;7.30;99.90
53802;DHT22;39709;53.334;6.534;2023-05-01T05:36:33;7.30;99.90
53802;DHT22;39709;53.334;6.534;2023-05-01T05:39:00;7.40;99.90
53802;DHT22;39709;53.334;6.534;2023-05-01T05:41:25;7.70;99.90
53802;DHT22;39709;53.334;6.534;2023-05-01T05:43:51;7.50;99.90
53802;DHT22;39709;53.334;6.534;2023-05-01T05:46:18;7.50;99.90
53802;DHT22;39709;53.334;6.534;2023-05-01T05:48:44;7.50;99.90
53802;DHT22;39709;53.334;6.534;2023-05-01T05:51:10;7.70;99.90
53802;DHT22;39709;53.334;6.534;2023-05-01T05:53:35;7.80;99.90
53802;DHT22;39709;53.334;6.534;2023-05-01T05:56:01;7.90;99.90
53802;DHT22;39709;53.334;6.534;2023-05-01T05:58:27;7.90;99.90
53802;DHT22;39709;53.334;6.534;2023-05-01T06:00:52;7.70;99.90
53802;DHT22;39709;53.334;6.534;2023-05-01T06:03:20;7.80;99.90
53802;DHT22;39709;53.334;6.534;2023-05-01T06:05:46;7.90;99.90
53802;DHT22;39709;53.334;6.534;2023-05-01T06:08:12;8.00;99.90
53802;DHT22;39709;53.334;6.534;2023-05-01T06:10:40;8.20;99.90
53802;DHT22;39709;53.334;6.534;2023-05-01T06:13:06;8.30;99.90
53802;DHT22;39709;53.334;6.534;2023-05-01T06:15:33;8.30;91.80
53802;DHT22;39709;53.334;6.534;2023-05-01T06:17:59;8.30;99.90
53802;DHT22;39709;53.334;6.534;2023-05-01T06:20:25;8.30;99.90
53802;DHT22;39709;53.334;6.534;2023-05-01T06:22:51;8.40;99.80
53802;DHT22;39709;53.334;6.534;2023-05-01T06:25:16;8.50;98.20
53802;DHT22;39709;53.334;6.534;2023-05-01T06:27:42;8.60;89.90
53802;DHT22;39709;53.334;6.534;2023-05-01T06:30:08;8.70;83.60
53802;DHT22;39709;53.334;6.534;2023-05-01T06:32:35;8.80;57.00
53802;DHT22;39709;53.334;6.534;2023-05-01T06:35:01;9.00;32.60
53802;DHT22;39709;53.334;6.534;2023-05-01T06:37:27;9.10;7.80
53802;DHT22;39709;53.334;6.534;2023-05-01T06:39:52;9.10;13.00
53802;DHT22;39709;53.334;6.534;2023-05-01T06:42:18;9.20;7.30
53802;DHT22;39709;53.334;6.534;2023-05-01T06:44:45;9.50;1.00
53802;DHT22;39709;53.334;6.534;2023-05-01T06:47:11;9.50;1.00
53802;DHT22;39709;53.334;6.534;2023-05-01T06:49:37;9.60;1.00
53802;DHT22;39709;53.334;6.534;2023-05-01T06:52:03;9.70;1.00
53802;DHT22;39709;53.334;6.534;2023-05-01T06:54:28;9.90;1.00
53802;DHT22;39709;53.334;6.534;2023-05-01T06:56:54;9.80;1.00
53802;DHT22;39709;53.334;6.534;2023-05-01T06:59:20;10.00;1.00
53802;DHT22;39709;53.334;6.534;2023-05-01T07:01:46;10.00;1.00
53802;DHT22;39709;53.334;6.534;2023-05-01T07:04:12;10.10;1.00
53802;DHT22;39709;53.334;6.534;2023-05-01T07:06:37;10.20;1.00
53802;DHT22;39709;53.334;6.534;2023-05-01T07:09:04;10.30;1.00
53802;DHT22;39709;53.334;6.534;2023-05-01T07:11:30;10.50;1.00
53802;DHT22;39709;53.334;6.534;2023-05-01T07:13:57;10.70;1.00
53802;DHT22;39709;53.334;6.534;2023-05-01T07:16:22;10.70;1.00
53802;DHT22;39709;53.334;6.534;2023-05-01T07:18:49;10.70;1.00
53802;DHT22;39709;53.334;6.534;2023-05-01T07:21:14;10.90;1.00
53802;DHT22;39709;53.334;6.534;2023-05-01T07:23:40;11.10;1.00
53802;DHT22;39709;53.334;6.534;2023-05-01T07:26:06;11.20;1.00
53802;DHT22;39709;53.334;6.534;2023-05-01T07:28:32;11.30;1.00
53802;DHT22;39709;53.334;6.534;2023-05-01T07:30:57;11.60;1.00
53802;DHT22;39709;53.334;6.534;2023-05-01T07:33:23;11.70;1.00
53802;DHT22;39709;53.334;6.534;2023-05-01T07:35:50;11.70;1.00
53802;DHT22;39709;53.334;6.534;2023-05-01T07:38:16;11.80;1.00
53802;DHT22;39709;53.334;6.534;2023-05-01T07:40:42;11.80;1.00
53802;DHT22;39709;53.334;6.534;2023-05-01T07:43:08;12.00;1.00
53802;DHT22;39709;53.334;6.534;2023-05-01T07:45:37;12.00;1.00
53802;DHT22;39709;53.334;6.534;2023-05-01T07:48:03;12.10;1.00
53802;DHT22;39709;53.334;6.534;2023-05-01T07:50:29;12.10;1.00
53802;DHT22;39709;53.334;6.534;2023-05-01T07:52:55;12.10;1.00
53802;DHT22;39709;53.334;6.534;2023-05-01T07:55:22;12.20;1.00
53802;DHT22;39709;53.334;6.534;2023-05-01T07:57:48;12.30;1.00
53802;DHT22;39709;53.334;6.534;2023-05-01T08:00:14;12.40;1.00
53802;DHT22;39709;53.334;6.534;2023-05-01T08:02:40;12.60;1.00
53802;DHT22;39709;53.334;6.534;2023-05-01T08:05:06;12.70;1.00
53802;DHT22;39709;53.334;6.534;2023-05-01T08:07:32;12.90;1.00
53802;DHT22;39709;53.334;6.534;2023-05-01T08:09:58;13.00;1.00
53802;DHT22;39709;53.334;6.534;2023-05-01T08:12:27;12.90;1.00
53802;DHT22;39709;53.334;6.534;2023-05-01T08:14:53;13.00;99.90
53802;DHT22;39709;53.334;6.534;2023-05-01T08:17:19;13.00;99.90
53802;DHT22;39709;53.334;6.534;2023-05-01T08:19:44;13.00;99.90
53802;DHT22;39709;53.334;6.534;2023-05-01T08:22:10;12.90;99.90
53802;DHT22;39709;53.334;6.534;2023-05-01T08:24:37;13.00;99.90
53802;DHT22;39709;53.334;6.534;2023-05-01T08:27:03;13.20;99.90
53802;DHT22;39709;53.334;6.534;2023-05-01T08:29:29;13.40;99.90
53802;DHT22;39709;53.334;6.534;2023-05-01T08:31:56;13.50;99.90
53802;DHT22;39709;53.334;6.534;2023-05-01T08:34:22;13.40;99.90
53802;DHT22;39709;53.334;6.534;2023-05-01T08:36:48;13.30;99.90
53802;DHT22;39709;53.334;6.534;2023-05-01T08:39:14;13.50;99.90
53802;DHT22;39709;53.334;6.534;2023-05-01T08:41:44;13.80;99.90
53802;DHT22;39709;53.334;6.534;2023-05-01T08:44:10;14.10;99.90
53802;DHT22;39709;53.334;6.534;2023-05-01T08:49:32;14.50;99.90
53802;DHT22;39709;53.334;6.534;2023-05-01T08:52:00;14.60;99.90
53802;DHT22;39709;53.334;6.534;2023-05-01T08:54:27;14.70;99.90
53802;DHT22;39709;53.334;6.534;2023-05-01T08:56:55;14.80;99.90
53802;DHT22;39709;53.334;6.534;2023-05-01T08:59:27;14.80;99.90
53802;DHT22;39709;53.334;6.534;2023-05-01T09:01:55;14.70;99.90
53802;DHT22;39709;53.334;6.534;2023-05-01T09:04:21;14.80;99.90
53802;DHT22;39709;53.334;6.534;2023-05-01T09:06:47;14.90;99.90
53802;DHT22;39709;53.334;6.534;2023-05-01T09:09:13;15.00;99.90
53802;DHT22;39709;53.334;6.534;2023-05-01T09:11:39;15.30;99.90
53802;DHT22;39709;53.334;6.534;2023-05-01T09:14:07;15.30;99.90
53802;DHT22;39709;53.334;6.534;2023-05-01T09:16:33;15.20;99.90
53802;DHT22;39709;53.334;6.534;2023-05-01T09:18:59;15.30;99.90
53802;DHT22;39709;53.334;6.534;2023-05-01T09:21:27;15.20;99.90
53802;DHT22;39709;53.334;6.534;2023-05-01T09:23:52;15.30;99.90
53802;DHT22;39709;53.334;6.534;2023-05-01T09:26:18;15.50;99.90
53802;DHT22;39709;53.334;6.534;2023-05-01T09:28:45;15.60;99.90
53802;DHT22;39709;53.334;6.534;2023-05-01T09:31:21;15.70;99.90
53802;DHT22;39709;53.334;6.534;2023-05-01T09:34:05;15.80;99.90
53802;DHT22;39709;53.334;6.534;2023-05-01T09:36:33;15.90;99.90
53802;DHT22;39709;53.334;6.534;2023-05-01T09:39:00;15.70;99.90
53802;DHT22;39709;53.334;6.534;2023-05-01T09:41:26;15.80;99.90
53802;DHT22;39709;53.334;6.534;2023-05-01T09:43:55;15.90;99.90
53802;DHT22;39709;53.334;6.534;2023-05-01T09:46:22;16.00;99.90
53802;DHT22;39709;53.334;6.534;2023-05-01T09:49:06;16.10;99.90
53802;DHT22;39709;53.334;6.534;2023-05-01T09:51:33;15.60;99.90
53802;DHT22;39709;53.334;6.534;2023-05-01T09:54:03;15.50;99.90
53802;DHT22;39709;53.334;6.534;2023-05-01T09:56:32;15.70;99.90
53802;DHT22;39709;53.334;6.534;2023-05-01T09:59:13;15.60;99.90
53802;DHT22;39709;53.334;6.534;2023-05-01T10:01:44;15.70;99.90
53802;DHT22;39709;53.334;6.534;2023-05-01T10:04:11;15.90;99.90
53802;DHT22;39709;53.334;6.534;2023-05-01T10:06:38;15.80;99.90
53802;DHT22;39709;53.334;6.534;2023-05-01T10:09:05;15.80;99.90
53802;DHT22;39709;53.334;6.534;2023-05-01T10:11:50;15.80;99.90
53802;DHT22;39709;53.334;6.534;2023-05-01T10:14:20;15.90;99.90
53802;DHT22;39709;53.334;6.534;2023-05-01T10:16:48;15.90;99.90
53802;DHT22;39709;53.334;6.534;2023-05-01T10:19:16;16.20;99.90
53802;DHT22;39709;53.334;6.534;2023-05-01T10:21:41;16.40;99.90
53802;DHT22;39709;53.334;6.534;2023-05-01T10:24:07;16.60;99.90
53802;DHT22;39709;53.334;6.534;2023-05-01T10:26:35;16.70;99.90
53802;DHT22;39709;53.334;6.534;2023-05-01T10:29:01;16.70;99.90
53802;DHT22;39709;53.334;6.534;2023-05-01T10:31:28;16.60;99.90
53802;DHT22;39709;53.334;6.534;2023-05-01T10:33:55;16.50;99.90
53802;DHT22;39709;53.334;6.534;2023-05-01T10:38:53;16.30;99.90
53802;DHT22;39709;53.334;6.534;2023-05-01T10:44:24;16.20;99.90
53802;DHT22;39709;53.334;6.534;2023-05-01T10:46:51;16.30;99.90
53802;DHT22;39709;53.334;6.534;2023-05-01T10:49:17;16.30;99.90
53802;DHT22;39709;53.334;6.534;2023-05-01T10:51:59;16.40;99.90
53802;DHT22;39709;53.334;6.534;2023-05-01T10:54:29;16.50;99.90
53802;DHT22;39709;53.334;6.534;2023-05-01T10:57:01;16.30;99.90
53802;DHT22;39709;53.334;6.534;2023-05-01T11:02:21;16.50;99.90
53802;DHT22;39709;53.334;6.534;2023-05-01T11:04:49;16.60;99.90
53802;DHT22;39709;53.334;6.534;2023-05-01T11:07:16;16.70;99.90
53802;DHT22;39709;53.334;6.534;2023-05-01T11:09:44;16.70;99.90
53802;DHT22;39709;53.334;6.534;2023-05-01T11:12:15;16.60;99.90
53802;DHT22;39709;53.334;6.534;2023-05-01T11:15:01;16.70;99.90
53802;DHT22;39709;53.334;6.534;2023-05-01T11:22:33;16.70;99.90
53802;DHT22;39709;53.334;6.534;2023-05-01T11:24:59;16.70;99.90
53802;DHT22;39709;53.334;6.534;2023-05-01T11:27:26;16.70;99.90
53802;DHT22;39709;53.334;6.534;2023-05-01T11:29:52;16.70;99.90
53802;DHT22;39709;53.334;6.534;2023-05-01T11:32:24;16.50;99.90
53802;DHT22;39709;53.334;6.534;2023-05-01T11:34:51;16.50;99.90
53802;DHT22;39709;53.334;6.534;2023-05-01T11:37:17;16.60;99.90
53802;DHT22;39709;53.334;6.534;2023-05-01T11:39:48;16.60;99.90
53802;DHT22;39709;53.334;6.534;2023-05-01T11:42:14;16.80;99.90
53802;DHT22;39709;53.334;6.534;2023-05-01T11:44:39;16.80;99.90
53802;DHT22;39709;53.334;6.534;2023-05-01T11:47:05;16.80;99.90
53802;DHT22;39709;53.334;6.534;2023-05-01T11:49:32;16.90;99.90
53802;DHT22;39709;53.334;6.534;2023-05-01T11:51:58;16.90;99.90
53802;DHT22;39709;53.334;6.534;2023-05-01T11:54:24;16.90;99.90
53802;DHT22;39709;53.334;6.534;2023-05-01T11:56:57;16.80;99.90
53802;DHT22;39709;53.334;6.534;2023-05-01T11:59:24;16.70;99.90
53802;DHT22;39709;53.334;6.534;2023-05-01T12:01:51;16.80;99.90
53802;DHT22;39709;53.334;6.534;2023-05-01T12:04:27;16.90;99.90
53802;DHT22;39709;53.334;6.534;2023-05-01T12:06:53;16.90;99.90
53802;DHT22;39709;53.334;6.534;2023-05-01T12:09:23;16.90;99.90
53802;DHT22;39709;53.334;6.534;2023-05-01T12:11:52;16.80;99.90
53802;DHT22;39709;53.334;6.534;2023-05-01T12:14:19;16.90;99.90
53802;DHT22;39709;53.334;6.534;2023-05-01T12:16:46;16.90;99.90
53802;DHT22;39709;53.334;6.534;2023-05-01T12:19:13;17.00;99.90
53802;DHT22;39709;53.334;6.534;2023-05-01T12:21:39;17.00;99.90
53802;DHT22;39709;53.334;6.534;2023-05-01T12:24:16;17.10;99.90
53802;DHT22;39709;53.334;6.534;2023-05-01T12:26:46;17.20;99.90
53802;DHT22;39709;53.334;6.534;2023-05-01T12:29:23;17.20;99.90
53802;DHT22;39709;53.334;6.534;2023-05-01T12:31:49;17.10;99.90
53802;DHT22;39709;53.334;6.534;2023-05-01T12:34:15;17.20;99.90
53802;DHT22;39709;53.334;6.534;2023-05-01T12:36:41;17.00;99.90
53802;DHT22;39709;53.334;6.534;2023-05-01T12:39:08;17.20;99.90
53802;DHT22;39709;53.334;6.534;2023-05-01T12:44:27;17.20;99.90
53802;DHT22;39709;53.334;6.534;2023-05-01T12:47:01;17.10;99.90
53802;DHT22;39709;53.334;6.534;2023-05-01T12:49:27;17.20;99.90
53802;DHT22;39709;53.334;6.534;2023-05-01T12:51:55;17.30;99.90
53802;DHT22;39709;53.334;6.534;2023-05-01T12:54:23;17.30;99.90
53802;DHT22;39709;53.334;6.534;2023-05-01T12:56:50;17.10;99.90
53802;DHT22;39709;53.334;6.534;2023-05-01T12:59:23;17.00;99.90
53802;DHT22;39709;53.334;6.534;2023-05-01T13:02:16;16.90;99.90
53802;DHT22;39709;53.334;6.534;2023-05-01T13:04:45;16.80;99.90
53802;DHT22;39709;53.334;6.534;2023-05-01T13:07:15;16.70;99.90
53802;DHT22;39709;53.334;6.534;2023-05-01T13:09:51;17.00;99.90
53802;DHT22;39709;53.334;6.534;2023-05-01T13:12:17;17.10;99.90
53802;DHT22;39709;53.334;6.534;2023-05-01T13:14:43;17.00;99.90
53802;DHT22;39709;53.334;6.534;2023-05-01T13:17:10;17.20;99.90
53802;DHT22;39709;53.334;6.534;2023-05-01T13:19:37;17.10;99.90
53802;DHT22;39709;53.334;6.534;2023-05-01T13:22:06;16.90;99.90
53802;DHT22;39709;53.334;6.534;2023-05-01T13:24:39;16.90;99.90
53802;DHT22;39709;53.334;6.534;2023-05-01T13:27:07;16.80;99.90
53802;DHT22;39709;53.334;6.534;2023-05-01T13:29:33;17.00;99.90
53802;DHT22;39709;53.334;6.534;2023-05-01T13:31:59;16.90;99.90
53802;DHT22;39709;53.334;6.534;2023-05-01T13:34:31;16.80;99.90
53802;DHT22;39709;53.334;6.534;2023-05-01T13:36:58;16.60;99.90
53802;DHT22;39709;53.334;6.534;2023-05-01T13:39:25;16.70;99.90
53802;DHT22;39709;53.334;6.534;2023-05-01T13:41:51;16.90;99.90
53802;DHT22;39709;53.334;6.534;2023-05-01T13:44:18;17.00;99.90
53802;DHT22;39709;53.334;6.534;2023-05-01T13:46:44;17.10;99.90
53802;DHT22;39709;53.334;6.534;2023-05-01T13:49:11;17.10;99.90
53802;DHT22;39709;53.334;6.534;2023-05-01T13:51:40;16.80;99.90
53802;DHT22;39709;53.334;6.534;2023-05-01T13:54:08;16.70;99.90
53802;DHT22;39709;53.334;6.534;2023-05-01T13:56:38;16.50;99.90
53802;DHT22;39709;53.334;6.534;2023-05-01T13:59:07;16.50;99.90
53802;DHT22;39709;53.334;6.534;2023-05-01T14:01:42;16.60;99.90
53802;DHT22;39709;53.334;6.534;2023-05-01T14:04:19;16.60;99.90
53802;DHT22;39709;53.334;6.534;2023-05-01T14:06:47;16.70;99.90
53802;DHT22;39709;53.334;6.534;2023-05-01T14:09:17;16.60;99.90
53802;DHT22;39709;53.334;6.534;2023-05-01T14:11:45;16.50;99.90
53802;DHT22;39709;53.334;6.534;2023-05-01T14:14:15;16.50;99.90
53802;DHT22;39709;53.334;6.534;2023-05-01T14:16:41;16.50;99.90
53802;DHT22;39709;53.334;6.534;2023-05-01T14:19:08;16.40;99.90
53802;DHT22;39709;53.334;6.534;2023-05-01T14:21:39;16.40;99.90
53802;DHT22;39709;53.334;6.534;2023-05-01T14:24:06;16.40;99.90
53802;DHT22;39709;53.334;6.534;2023-05-01T14:26:32;16.40;99.90
53802;DHT22;39709;53.334;6.534;2023-05-01T14:28:57;16.40;99.90
53802;DHT22;39709;53.334;6.534;2023-05-01T14:31:25;16.50;99.90
53802;DHT22;39709;53.334;6.534;2023-05-01T14:33:59;16.60;99.90
53802;DHT22;39709;53.334;6.534;2023-05-01T14:36:27;16.60;99.90
53802;DHT22;39709;53.334;6.534;2023-05-01T14:38:56;16.50;99.90
53802;DHT22;39709;53.334;6.534;2023-05-01T14:41:22;16.40;99.90
53802;DHT22;39709;53.334;6.534;2023-05-01T14:43:49;16.30;99.90
53802;DHT22;39709;53.334;6.534;2023-05-01T14:48:50;16.30;99.90
53802;DHT22;39709;53.334;6.534;2023-05-01T14:51:18;16.30;99.90
53802;DHT22;39709;53.334;6.534;2023-05-01T14:53:44;16.10;99.90
53802;DHT22;39709;53.334;6.534;2023-05-01T14:56:11;16.20;99.90
53802;DHT22;39709;53.334;6.534;2023-05-01T14:58:37;16.00;99.90
53802;DHT22;39709;53.334;6.534;2023-05-01T15:01:03;15.90;99.90
53802;DHT22;39709;53.334;6.534;2023-05-01T15:03:29;15.80;99.90
53802;DHT22;39709;53.334;6.534;2023-05-01T15:05:55;15.90;99.90
53802;DHT22;39709;53.334;6.534;2023-05-01T15:08:21;15.80;99.90
53802;DHT22;39709;53.334;6.534;2023-05-01T15:10:48;15.50;99.90
53802;DHT22;39709;53.334;6.534;2023-05-01T15:13:16;15.70;99.90
53802;DHT22;39709;53.334;6.534;2023-05-01T15:15:42;15.50;99.90
53802;DHT22;39709;53.334;6.534;2023-05-01T15:18:08;15.50;99.90
53802;DHT22;39709;53.334;6.534;2023-05-01T15:20:33;15.70;99.90
53802;DHT22;39709;53.334;6.534;2023-05-01T15:22:59;15.60;99.90
53802;DHT22;39709;53.334;6.534;2023-05-01T15:25:25;15.70;99.90
53802;DHT22;39709;53.334;6.534;2023-05-01T15:27:50;15.80;99.90
53802;DHT22;39709;53.334;6.534;2023-05-01T15:30:16;15.80;99.90
53802;DHT22;39709;53.334;6.534;2023-05-01T15:32:42;15.90;99.90
53802;DHT22;39709;53.334;6.534;2023-05-01T15:35:07;16.00;99.90
53802;DHT22;39709;53.334;6.534;2023-05-01T15:37:33;16.00;99.90
53802;DHT22;39709;53.334;6.534;2023-05-01T15:39:59;15.90;99.90
53802;DHT22;39709;53.334;6.534;2023-05-01T15:42:25;15.90;99.90
53802;DHT22;39709;53.334;6.534;2023-05-01T15:44:51;15.90;99.90
53802;DHT22;39709;53.334;6.534;2023-05-01T15:47:17;15.80;99.90
53802;DHT22;39709;53.334;6.534;2023-05-01T15:49:42;15.80;99.90
53802;DHT22;39709;53.334;6.534;2023-05-01T15:52:08;16.00;99.90
53802;DHT22;39709;53.334;6.534;2023-05-01T15:54:34;16.30;99.90
53802;DHT22;39709;53.334;6.534;2023-05-01T15:56:59;16.60;99.90
53802;DHT22;39709;53.334;6.534;2023-05-01T15:59:28;16.70;99.90
53802;DHT22;39709;53.334;6.534;2023-05-01T16:01:54;16.60;99.90
53802;DHT22;39709;53.334;6.534;2023-05-01T16:04:20;16.80;99.90
53802;DHT22;39709;53.334;6.534;2023-05-01T16:06:46;16.60;99.90
53802;DHT22;39709;53.334;6.534;2023-05-01T16:09:12;16.30;99.90
53802;DHT22;39709;53.334;6.534;2023-05-01T16:11:38;16.20;99.90
53802;DHT22;39709;53.334;6.534;2023-05-01T16:14:07;16.20;99.90
53802;DHT22;39709;53.334;6.534;2023-05-01T16:16:33;16.10;99.90
53802;DHT22;39709;53.334;6.534;2023-05-01T16:18:59;15.90;99.90
53802;DHT22;39709;53.334;6.534;2023-05-01T16:21:26;15.70;99.90